createdAt,value
2022-08-17T00:01:31.396Z,22.29
2022-08-17T00:04:19.036Z,22.33
2022-08-17T00:06:46.077Z,22.37
2022-08-17T00:09:19.026Z,22.45
2022-08-17T00:12:34.845Z,22.45
2022-08-17T00:14:35.008Z,22.43
2022-08-17T00:17:03.714Z,22.43
2022-08-17T00:19:30.381Z,22.39
2022-08-17T00:22:33.882Z,22.48
2022-08-17T00:24:47.273Z,22.43
2022-08-17T00:27:13.829Z,22.39
2022-08-17T00:29:40.539Z,22.42
2022-08-17T00:33:12.434Z,22.28
2022-08-17T00:34:53.814Z,22.28
2022-08-17T00:37:20.396Z,22.23
2022-08-17T00:39:46.933Z,21.98
2022-08-17T00:42:18.956Z,22.03
2022-08-17T00:44:46.177Z,22.04
2022-08-17T00:47:12.713Z,22.09
2022-08-17T00:49:39.569Z,22.13
2022-08-17T00:52:15.524Z,22.10
2022-08-17T00:54:44.876Z,22.08
2022-08-17T00:57:34.424Z,21.69
2022-08-17T01:00:08.940Z,21.77
2022-08-17T01:02:41.762Z,21.80
2022-08-17T01:05:16.362Z,21.90
2022-08-17T01:07:47.545Z,21.94
2022-08-17T01:10:58.269Z,21.93
2022-08-17T01:13:02.747Z,22.11
2022-08-17T01:15:36.165Z,21.61
2022-08-17T01:18:05.392Z,21.05
2022-08-17T01:20:32.503Z,21.34
2022-08-17T01:23:18.479Z,21.62
2022-08-17T01:25:54.192Z,21.64
2022-08-17T01:28:52.832Z,21.21
2022-08-17T01:31:09.708Z,20.84
2022-08-17T01:33:36.680Z,20.89
2022-08-17T01:36:04.987Z,20.94
2022-08-17T01:38:31.910Z,20.79
2022-08-17T01:41:03.200Z,20.80
2022-08-17T01:43:43.565Z,20.45
2022-08-17T01:46:16.826Z,20.71
2022-08-17T01:48:47.255Z,20.81
2022-08-17T01:51:15.510Z,21.03
2022-08-17T01:53:47.303Z,21.07
2022-08-17T01:56:18.245Z,21.04
2022-08-17T01:58:45.779Z,21.10
2022-08-17T02:01:14.760Z,21.06
2022-08-17T02:03:41.987Z,21.23
2022-08-17T02:06:27.690Z,21.21
2022-08-17T02:09:03.153Z,20.99
2022-08-17T02:11:32.388Z,21.24
2022-08-17T02:14:03.202Z,21.17
2022-08-17T02:16:37.564Z,21.29
2022-08-17T02:19:07.794Z,21.08
2022-08-17T02:21:36.120Z,21.06
2022-08-17T02:24:03.706Z,21.10
2022-08-17T02:26:30.162Z,20.93
2022-08-17T02:28:56.861Z,21.00
2022-08-17T02:31:23.419Z,21.01
2022-08-17T02:34:00.361Z,21.06
2022-08-17T02:36:34.440Z,20.93
2022-08-17T02:39:04.967Z,20.96
2022-08-17T02:41:31.491Z,20.92
2022-08-17T02:43:58.657Z,21.04
2022-08-17T02:46:25.532Z,20.95
2022-08-17T02:48:52.054Z,21.00
2022-08-17T02:51:18.714Z,21.08
2022-08-17T02:53:45.163Z,21.14
2022-08-17T02:56:11.656Z,21.22
2022-08-17T02:58:38.269Z,21.01
2022-08-17T03:01:07.474Z,21.04
2022-08-17T03:03:35.167Z,21.09
2022-08-17T03:06:02.105Z,21.04
2022-08-17T03:08:29.124Z,21.08
2022-08-17T03:10:56.431Z,21.01
2022-08-17T03:13:23.445Z,20.97
2022-08-17T03:15:50.636Z,21.06
2022-08-17T03:18:24.547Z,21.14
2022-08-17T03:20:57.244Z,20.82
2022-08-17T03:23:25.444Z,20.80
2022-08-17T03:25:53.962Z,20.72
2022-08-17T03:28:21.641Z,20.63
2022-08-17T03:30:48.563Z,20.51
2022-08-17T03:33:16.846Z,20.60
2022-08-17T03:35:43.554Z,20.33
2022-08-17T03:38:11.876Z,20.41
2022-08-17T03:40:56.259Z,20.45
2022-08-17T03:43:25.164Z,20.13
2022-08-17T03:46:27.312Z,20.14
2022-08-17T03:49:14.439Z,20.14
2022-08-17T03:51:59.400Z,20.05
2022-08-17T03:54:44.314Z,20.16
2022-08-17T03:57:12.510Z,20.09
2022-08-17T03:59:39.336Z,20.17
2022-08-17T04:02:11.394Z,20.14
2022-08-17T04:04:39.274Z,20.34
2022-08-17T04:07:06.917Z,20.14
2022-08-17T04:09:33.992Z,20.09
2022-08-17T04:12:02.325Z,20.15
2022-08-17T04:14:52.000Z,20.17
2022-08-17T04:17:26.199Z,20.30
2022-08-17T04:19:53.796Z,20.29
2022-08-17T04:22:32.375Z,20.28
2022-08-17T04:25:03.522Z,20.25
2022-08-17T04:27:30.040Z,20.35
2022-08-17T04:29:56.525Z,20.49
2022-08-17T04:32:59.294Z,20.43
2022-08-17T04:35:10.002Z,20.35
2022-08-17T04:37:36.590Z,20.45
2022-08-17T04:40:39.214Z,20.12
2022-08-17T04:43:18.840Z,20.17
2022-08-17T04:46:00.331Z,20.37
2022-08-17T04:48:36.499Z,20.44
2022-08-17T04:51:20.482Z,20.54
2022-08-17T04:53:54.062Z,20.48
2022-08-17T04:56:22.235Z,20.43
2022-08-17T04:58:50.819Z,20.52
2022-08-17T05:01:23.290Z,20.60
2022-08-17T05:03:52.150Z,20.32
2022-08-17T05:06:18.673Z,20.39
2022-08-17T05:08:45.215Z,20.31
2022-08-17T05:11:11.765Z,20.39
2022-08-17T05:13:38.314Z,20.53
2022-08-17T05:16:05.638Z,20.53
2022-08-17T05:18:32.647Z,20.56
2022-08-17T05:20:59.401Z,20.70
2022-08-17T05:23:42.098Z,20.73
2022-08-17T05:26:15.255Z,20.78
2022-08-17T05:28:54.993Z,20.82
2022-08-17T05:31:24.329Z,20.90
2022-08-17T05:33:50.926Z,21.00
2022-08-17T05:36:41.565Z,21.10
2022-08-17T05:39:04.241Z,20.96
2022-08-17T05:41:30.712Z,21.10
2022-08-17T05:43:57.272Z,21.09
2022-08-17T05:46:27.487Z,21.14
2022-08-17T05:49:02.318Z,21.37
2022-08-17T05:51:31.793Z,21.41
2022-08-17T05:54:08.291Z,21.38
2022-08-17T05:56:43.939Z,21.38
2022-08-17T05:59:22.774Z,21.52
2022-08-17T06:02:02.815Z,21.43
2022-08-17T06:04:52.796Z,21.58
2022-08-17T06:07:31.778Z,21.76
2022-08-17T06:10:19.569Z,21.77
2022-08-17T06:13:07.942Z,22.01
2022-08-17T06:16:01.762Z,22.22
2022-08-17T06:18:41.767Z,22.27
2022-08-17T06:21:13.157Z,22.41
2022-08-17T06:23:45.131Z,22.46
2022-08-17T06:26:17.487Z,22.62
2022-08-17T06:29:00.339Z,22.71
2022-08-17T06:31:31.371Z,22.87
2022-08-17T06:34:00.199Z,23.03
2022-08-17T06:36:40.128Z,23.02
2022-08-17T06:39:19.938Z,23.05
2022-08-17T06:42:05.567Z,23.19
2022-08-17T06:44:43.492Z,23.37
2022-08-17T06:47:29.380Z,23.46
2022-08-17T06:50:05.607Z,23.68
2022-08-17T06:52:46.671Z,23.64
2022-08-17T06:55:26.406Z,23.71
2022-08-17T06:57:59.002Z,23.97
2022-08-17T07:00:36.835Z,24.01
2022-08-17T07:03:14.810Z,24.18
2022-08-17T07:05:46.456Z,24.45
2022-08-17T07:08:13.126Z,24.68
2022-08-17T07:10:51.058Z,24.82
2022-08-17T07:13:38.114Z,24.92
2022-08-17T07:16:14.659Z,24.92
2022-08-17T07:18:41.805Z,25.11
2022-08-17T07:21:25.844Z,24.84
2022-08-17T07:24:31.377Z,25.22
2022-08-17T07:27:16.449Z,25.53
2022-08-17T07:30:10.347Z,25.45
2022-08-17T07:32:45.226Z,25.52
2022-08-17T07:35:37.900Z,25.62
2022-08-17T07:38:24.957Z,25.76
2022-08-17T07:41:02.624Z,25.98
2022-08-17T07:43:41.616Z,25.99
2022-08-17T07:46:41.692Z,25.83
2022-08-17T07:49:11.184Z,25.88
2022-08-17T07:51:53.677Z,26.03
2022-08-17T07:54:28.756Z,25.84
2022-08-17T07:57:03.442Z,26.16
2022-08-17T07:59:36.075Z,26.38
2022-08-17T08:02:20.134Z,26.31
2022-08-17T08:05:01.456Z,26.38
2022-08-17T08:08:00.683Z,26.45
2022-08-17T08:10:38.068Z,26.54
2022-08-17T08:13:10.700Z,26.70
2022-08-17T08:15:54.336Z,26.52
2022-08-17T08:18:53.787Z,26.52
2022-08-17T08:21:33.821Z,26.75
2022-08-17T08:24:00.339Z,26.92
2022-08-17T08:26:55.359Z,27.05
2022-08-17T08:29:35.654Z,26.97
2022-08-17T08:32:18.190Z,27.08
2022-08-17T08:35:04.327Z,27.03
2022-08-17T08:37:37.893Z,27.06
2022-08-17T08:40:34.847Z,27.24
2022-08-17T08:43:02.311Z,27.29
2022-08-17T08:45:38.431Z,27.44
2022-08-17T08:48:53.333Z,27.65
2022-08-17T08:51:35.820Z,27.64
2022-08-17T08:54:34.539Z,27.63
2022-08-17T08:57:26.845Z,27.72
2022-08-17T09:00:17.152Z,28.04
2022-08-17T09:03:08.398Z,28.26
2022-08-17T09:05:50.082Z,28.14
2022-08-17T09:08:32.317Z,28.10
2022-08-17T09:11:18.199Z,28.42
2022-08-17T09:13:55.517Z,28.25
2022-08-17T09:16:29.664Z,28.41
2022-08-17T09:19:08.474Z,28.41
2022-08-17T09:21:48.786Z,28.76
2022-08-17T09:24:43.406Z,28.70
2022-08-17T09:27:26.698Z,28.59
2022-08-17T09:29:59.026Z,28.95
2022-08-17T09:32:38.279Z,29.30
2022-08-17T09:35:15.983Z,29.41
2022-08-17T09:38:05.209Z,29.77
2022-08-17T09:40:34.536Z,29.75
2022-08-17T09:43:10.029Z,29.92
2022-08-17T09:45:50.559Z,29.93
2022-08-17T09:48:38.473Z,29.97
2022-08-17T09:51:15.274Z,30.03
2022-08-17T09:53:44.541Z,29.84
2022-08-17T09:56:36.398Z,30.01
2022-08-17T09:59:20.086Z,29.85
2022-08-17T10:01:58.705Z,30.06
2022-08-17T10:04:40.817Z,30.03
2022-08-17T10:07:15.401Z,30.04
2022-08-17T10:10:03.941Z,30.05
2022-08-17T10:12:53.182Z,30.01
2022-08-17T10:15:40.813Z,30.19
2022-08-17T10:18:17.635Z,30.27
2022-08-17T10:21:21.501Z,30.43
2022-08-17T10:24:15.855Z,30.34
2022-08-17T10:26:57.057Z,29.98
2022-08-17T10:29:49.639Z,30.03
2022-08-17T10:32:32.148Z,30.19
2022-08-17T10:35:01.713Z,30.14
2022-08-17T10:37:46.568Z,30.07
2022-08-17T10:40:30.369Z,30.10
2022-08-17T10:43:19.188Z,29.96
2022-08-17T10:46:09.531Z,30.05
2022-08-17T10:49:18.144Z,29.96
2022-08-17T10:51:52.841Z,30.20
2022-08-17T10:54:25.004Z,30.22
2022-08-17T10:56:54.170Z,30.12
2022-08-17T10:59:35.716Z,30.36
2022-08-17T11:02:12.256Z,30.13
2022-08-17T11:04:47.884Z,29.93
2022-08-17T11:07:32.815Z,30.22
2022-08-17T11:10:08.407Z,30.20
2022-08-17T11:12:54.239Z,30.24
2022-08-17T11:15:47.362Z,30.21
2022-08-17T11:18:41.802Z,29.88
2022-08-17T11:21:15.170Z,30.11
2022-08-17T11:24:06.049Z,30.08
2022-08-17T11:26:35.809Z,30.01
2022-08-17T11:29:08.884Z,30.03
2022-08-17T11:31:40.129Z,29.94
2022-08-17T11:34:21.895Z,29.89
2022-08-17T11:37:19.584Z,29.87
2022-08-17T11:40:20.634Z,29.82
2022-08-17T11:42:58.988Z,29.58
2022-08-17T11:45:50.006Z,29.36
2022-08-17T11:48:48.062Z,28.78
2022-08-17T11:51:36.201Z,27.96
2022-08-17T11:54:31.728Z,27.32
2022-08-17T11:56:54.886Z,26.90
2022-08-17T11:59:33.311Z,26.52
2022-08-17T12:02:02.604Z,26.33
2022-08-17T12:04:34.782Z,25.72
2022-08-17T12:07:17.689Z,25.47
2022-08-17T12:09:48.594Z,25.10
2022-08-17T12:12:22.802Z,25.04
2022-08-17T12:15:11.007Z,24.93
2022-08-17T12:17:40.837Z,25.12
2022-08-17T12:20:21.390Z,24.39
2022-08-17T12:23:01.045Z,24.46
2022-08-17T12:25:40.306Z,24.67
2022-08-17T12:28:22.861Z,24.57
2022-08-17T12:30:52.030Z,24.87
2022-08-17T12:33:25.547Z,24.87
2022-08-17T12:36:08.627Z,25.17
2022-08-17T12:38:37.893Z,25.16
2022-08-17T12:41:25.393Z,24.96
2022-08-17T12:44:03.924Z,24.93
2022-08-17T12:46:34.838Z,24.99
2022-08-17T12:49:30.054Z,25.00
2022-08-17T12:52:08.991Z,24.88
2022-08-17T12:54:47.563Z,24.74
2022-08-17T12:57:19.013Z,24.85
2022-08-17T12:59:50.520Z,24.96
2022-08-17T13:02:24.551Z,25.01
2022-08-17T13:04:51.346Z,24.92
2022-08-17T13:07:35.668Z,24.85
2022-08-17T13:10:03.997Z,24.99
2022-08-17T13:12:34.367Z,24.95
2022-08-17T13:15:01.536Z,24.45
2022-08-17T13:17:31.863Z,24.71
2022-08-17T13:19:58.929Z,25.08
2022-08-17T13:22:27.859Z,25.14
2022-08-17T13:24:58.310Z,25.37
2022-08-17T13:27:27.684Z,25.25
2022-08-17T13:30:00.479Z,25.31
2022-08-17T13:32:45.033Z,25.39
2022-08-17T13:35:40.578Z,25.41
2022-08-17T13:38:11.703Z,25.75
2022-08-17T13:40:52.230Z,25.52
2022-08-17T13:43:40.674Z,25.75
2022-08-17T13:46:11.561Z,25.85
2022-08-17T13:48:38.996Z,26.02
2022-08-17T13:51:14.158Z,26.29
2022-08-17T13:53:40.632Z,26.18
2022-08-17T13:56:37.249Z,26.34
2022-08-17T13:59:05.069Z,26.10
2022-08-17T14:01:36.088Z,26.22
2022-08-17T14:04:06.998Z,26.05
2022-08-17T14:06:52.915Z,26.08
2022-08-17T14:09:26.846Z,26.27
2022-08-17T14:11:55.535Z,26.38
2022-08-17T14:14:25.344Z,26.55
2022-08-17T14:16:53.758Z,26.46
2022-08-17T14:19:22.039Z,26.66
2022-08-17T14:21:49.699Z,26.90
2022-08-17T14:24:24.148Z,27.07
2022-08-17T14:26:52.950Z,27.48
2022-08-17T14:29:20.793Z,27.92
2022-08-17T14:31:53.287Z,28.10
2022-08-17T14:34:21.578Z,28.24
2022-08-17T14:36:48.873Z,28.35
2022-08-17T14:39:17.733Z,28.53
2022-08-17T14:41:44.670Z,28.46
2022-08-17T14:44:12.600Z,28.73
2022-08-17T14:46:40.892Z,28.96
2022-08-17T14:49:08.935Z,29.19
2022-08-17T14:51:43.580Z,29.23
2022-08-17T14:54:11.282Z,29.42
2022-08-17T14:56:38.603Z,29.78
2022-08-17T14:59:05.178Z,29.58
2022-08-17T15:01:31.890Z,29.71
2022-08-17T15:03:58.529Z,29.49
2022-08-17T15:06:25.024Z,29.93
2022-08-17T15:08:51.622Z,29.90
2022-08-17T15:11:18.316Z,30.01
2022-08-17T15:13:52.692Z,29.93
2022-08-17T15:16:20.405Z,30.40
2022-08-17T15:18:46.933Z,30.39
2022-08-17T15:21:14.842Z,30.19
2022-08-17T15:23:41.537Z,30.44
2022-08-17T15:26:10.797Z,30.35
2022-08-17T15:28:37.754Z,30.54
2022-08-17T15:31:05.690Z,30.62
2022-08-17T15:33:32.888Z,30.56
2022-08-17T15:36:02.874Z,30.64
2022-08-17T15:38:30.481Z,30.83
2022-08-17T15:40:58.384Z,30.87
2022-08-17T15:43:28.366Z,30.81
2022-08-17T15:46:18.634Z,30.70
2022-08-17T15:48:48.327Z,30.23
2022-08-17T15:51:27.433Z,29.93
2022-08-17T15:54:00.256Z,30.21
2022-08-17T15:56:31.682Z,30.04
2022-08-17T15:58:58.828Z,30.05
2022-08-17T16:01:57.406Z,29.93
2022-08-17T16:04:29.711Z,29.66
2022-08-17T16:06:57.911Z,29.53
2022-08-17T16:09:24.483Z,29.69
2022-08-17T16:11:55.332Z,29.89
2022-08-17T16:14:23.156Z,29.82
2022-08-17T16:16:51.049Z,29.76
2022-08-17T16:19:19.881Z,29.69
2022-08-17T16:21:46.499Z,29.69
2022-08-17T16:24:13.647Z,29.76
2022-08-17T16:26:42.202Z,29.50
2022-08-17T16:29:09.036Z,29.70
2022-08-17T16:31:38.790Z,29.67
2022-08-17T16:34:17.671Z,29.71
2022-08-17T16:36:55.636Z,29.64
2022-08-17T16:39:28.861Z,29.63
2022-08-17T16:41:56.550Z,29.67
2022-08-17T16:44:23.188Z,29.64
2022-08-17T16:46:50.345Z,29.63
2022-08-17T16:49:25.799Z,29.66
2022-08-17T16:52:06.343Z,29.57
2022-08-17T16:54:35.423Z,29.58
2022-08-17T16:57:04.874Z,29.09
2022-08-17T16:59:40.914Z,29.13
2022-08-17T17:02:11.085Z,29.13
2022-08-17T17:04:51.917Z,29.21
2022-08-17T17:07:40.236Z,28.77
2022-08-17T17:10:15.585Z,28.58
2022-08-17T17:13:02.871Z,28.36
2022-08-17T17:15:47.234Z,28.43
2022-08-17T17:18:15.821Z,28.10
2022-08-17T17:20:54.566Z,28.13
2022-08-17T17:23:46.084Z,28.10
2022-08-17T17:26:39.645Z,28.00
2022-08-17T17:29:46.535Z,27.87
2022-08-17T17:32:24.679Z,27.76
2022-08-17T17:34:59.531Z,27.63
2022-08-17T17:37:34.104Z,27.65
2022-08-17T17:40:12.466Z,27.48
2022-08-17T17:42:42.162Z,27.04
2022-08-17T17:45:25.827Z,27.06
2022-08-17T17:47:53.481Z,27.05
2022-08-17T17:50:26.535Z,27.17
2022-08-17T17:53:04.039Z,27.31
2022-08-17T17:55:47.130Z,27.31
2022-08-17T17:58:42.578Z,27.28
2022-08-17T18:01:27.669Z,27.12
2022-08-17T18:04:20.516Z,27.13
2022-08-17T18:07:18.793Z,27.27
2022-08-17T18:10:29.350Z,26.97
2022-08-17T18:13:13.229Z,27.00
2022-08-17T18:15:52.132Z,26.86
2022-08-17T18:18:33.083Z,27.02
2022-08-17T18:21:06.848Z,26.80
2022-08-17T18:23:34.126Z,26.60
2022-08-17T18:26:02.000Z,26.61
2022-08-17T18:28:28.472Z,26.53
2022-08-17T18:31:04.081Z,26.23
2022-08-17T18:33:30.627Z,26.16
2022-08-17T18:35:58.755Z,26.08
2022-08-17T18:38:33.849Z,25.99
2022-08-17T18:41:25.887Z,25.91
2022-08-17T18:44:06.436Z,25.89
2022-08-17T18:46:37.755Z,25.82
2022-08-17T18:49:26.179Z,25.80
2022-08-17T18:52:16.190Z,25.83
2022-08-17T18:55:13.758Z,25.61
2022-08-17T18:57:46.872Z,25.59
2022-08-17T19:00:13.691Z,25.44
2022-08-17T19:02:58.756Z,25.54
2022-08-17T19:05:27.795Z,25.69
2022-08-17T19:07:54.852Z,25.48
2022-08-17T19:10:28.791Z,25.32
2022-08-17T19:13:00.718Z,25.47
2022-08-17T19:15:35.506Z,25.48
2022-08-17T19:18:34.698Z,25.56
2022-08-17T19:21:20.502Z,25.46
2022-08-17T19:23:53.377Z,25.55
2022-08-17T19:26:55.382Z,25.45
2022-08-17T19:29:16.607Z,25.23
2022-08-17T19:31:46.325Z,25.28
2022-08-17T19:34:17.582Z,25.35
2022-08-17T19:37:07.529Z,25.33
2022-08-17T19:40:02.133Z,25.21
2022-08-17T19:42:41.187Z,24.95
2022-08-17T19:45:19.362Z,24.83
2022-08-17T19:48:21.064Z,24.93
2022-08-17T19:51:01.328Z,24.89
2022-08-17T19:54:04.758Z,24.89
2022-08-17T19:56:47.676Z,24.91
2022-08-17T19:59:52.170Z,25.01
2022-08-17T20:02:31.411Z,24.99
2022-08-17T20:05:00.088Z,24.87
2022-08-17T20:07:36.846Z,24.69
2022-08-17T20:10:11.048Z,24.77
2022-08-17T20:12:41.151Z,24.68
2022-08-17T20:15:38.950Z,24.67
2022-08-17T20:18:13.577Z,24.61
2022-08-17T20:20:55.949Z,24.70
2022-08-17T20:23:44.851Z,24.62
2022-08-17T20:26:34.341Z,24.55
2022-08-17T20:29:37.232Z,24.50
2022-08-17T20:32:17.984Z,24.47
2022-08-17T20:34:47.209Z,24.41
2022-08-17T20:37:13.608Z,24.37
2022-08-17T20:39:40.281Z,24.46
2022-08-17T20:42:22.565Z,24.37
2022-08-17T20:44:52.548Z,24.37
2022-08-17T20:47:27.475Z,24.39
2022-08-17T20:50:27.110Z,24.50
2022-08-17T20:52:57.959Z,24.38
2022-08-17T20:55:52.945Z,24.25
2022-08-17T20:58:23.190Z,24.21
2022-08-17T21:00:58.944Z,24.06
2022-08-17T21:03:32.253Z,23.90
2022-08-17T21:06:18.130Z,24.02
2022-08-17T21:09:18.861Z,23.92
2022-08-17T21:12:04.423Z,24.09
2022-08-17T21:14:40.913Z,24.15
2022-08-17T21:17:31.617Z,24.23
2022-08-17T21:20:27.418Z,24.19
2022-08-17T21:23:13.080Z,24.14
2022-08-17T21:25:57.892Z,24.14
2022-08-17T21:29:00.742Z,24.12
2022-08-17T21:31:40.011Z,24.06
2022-08-17T21:34:15.459Z,24.10
2022-08-17T21:36:43.844Z,24.03
2022-08-17T21:39:14.207Z,24.01
2022-08-17T21:41:52.694Z,24.00
2022-08-17T21:44:30.939Z,24.01
2022-08-17T21:47:13.890Z,24.06
2022-08-17T21:49:40.419Z,23.91
2022-08-17T21:52:07.465Z,23.85
2022-08-17T21:54:38.736Z,23.84
2022-08-17T21:57:14.809Z,23.70
2022-08-17T21:59:43.608Z,23.63
2022-08-17T22:02:22.646Z,23.58
2022-08-17T22:05:07.371Z,23.53
2022-08-17T22:07:53.071Z,23.41
2022-08-17T22:10:34.564Z,23.38
2022-08-17T22:13:16.881Z,23.21
2022-08-17T22:15:47.506Z,23.22
2022-08-17T22:18:22.900Z,23.07
2022-08-17T22:20:52.223Z,23.00
2022-08-17T22:24:00.690Z,22.94
2022-08-17T22:27:00.199Z,22.94
2022-08-17T22:29:45.473Z,23.12
2022-08-17T22:32:31.118Z,23.23
2022-08-17T22:35:16.279Z,23.22
2022-08-17T22:37:42.896Z,23.09
2022-08-17T22:40:09.522Z,23.08
2022-08-17T22:42:47.378Z,23.13
2022-08-17T22:45:14.243Z,23.05
2022-08-17T22:47:48.446Z,23.06
2022-08-17T22:50:25.578Z,23.05
2022-08-17T22:53:20.129Z,23.09
2022-08-17T22:56:13.757Z,23.22
2022-08-17T22:59:15.900Z,23.21
2022-08-17T23:01:45.404Z,22.83
2022-08-17T23:04:36.742Z,22.74
2022-08-17T23:07:03.428Z,22.58
2022-08-17T23:11:59.772Z,22.69
2022-08-17T23:14:31.648Z,22.74
2022-08-17T23:16:59.352Z,22.80
2022-08-17T23:19:27.284Z,22.76
2022-08-17T23:21:56.256Z,22.78
2022-08-17T23:24:26.924Z,22.78
2022-08-17T23:26:57.174Z,22.71
2022-08-17T23:29:24.831Z,22.69
2022-08-17T23:31:52.693Z,22.72
2022-08-17T23:34:19.569Z,22.67
2022-08-17T23:36:50.644Z,22.48
2022-08-17T23:39:24.697Z,22.30
2022-08-17T23:42:00.336Z,22.25
2022-08-17T23:44:28.773Z,22.17
2022-08-17T23:46:55.346Z,22.20
2022-08-17T23:49:23.454Z,22.25
2022-08-17T23:51:50.313Z,22.33
2022-08-17T23:54:28.763Z,22.21
2022-08-17T23:56:55.408Z,22.05
2022-08-17T23:59:23.116Z,21.86
